Time;durP1;ratioP1;P1;durP2;ratioP2;P2;SDS_P1;SDS_P2;PMS_P1;PMS_P2;Temp;Humidity;BMP_temperature;BMP_pressure;BME280_temperature;BME280_humidity;BME280_pressure;Samples;Min_cycle;Max_cycle;Signal;HPM_P1;HPM_P2
2021/03/24 00:01:19;;;;;;;14.73;6.93;;;7.20;95.00;;;;;;4424717;32;20185;-75
2021/03/24 00:03:46;;;;;;;14.53;6.90;;;7.10;95.10;;;;;;4424969;32;20172;-75
2021/03/24 00:06:14;;;;;;;15.87;7.40;;;7.10;95.20;;;;;;4424690;32;20181;-75
2021/03/24 00:08:40;;;;;;;19.57;7.43;;;7.10;95.30;;;;;;4426131;32;20165;-75
2021/03/24 00:11:08;;;;;;;13.30;7.23;;;7.10;95.50;;;;;;4424373;32;20469;-74
2021/03/24 00:13:35;;;;;;;14.20;7.00;;;7.10;95.40;;;;;;4423987;32;20183;-75
2021/03/24 00:16:02;;;;;;;15.40;7.00;;;7.10;95.50;;;;;;4424359;32;20148;-73
2021/03/24 00:18:30;;;;;;;17.67;7.30;;;7.10;95.60;;;;;;4423957;32;20557;-74
2021/03/24 00:20:57;;;;;;;14.63;7.30;;;7.10;95.60;;;;;;4424446;32;20158;-74
2021/03/24 00:23:24;;;;;;;16.57;6.97;;;7.20;95.50;;;;;;4424459;32;20394;-74
2021/03/24 00:25:51;;;;;;;15.03;6.93;;;7.10;95.30;;;;;;4424649;32;20163;-74
2021/03/24 00:28:19;;;;;;;16.57;7.10;;;7.00;95.70;;;;;;4425786;32;20223;-74
2021/03/24 00:30:48;;;;;;;14.80;7.20;;;7.00;95.90;;;;;;4424283;32;20159;-74
2021/03/24 00:33:19;;;;;;;16.77;7.50;;;7.00;95.90;;;;;;4424296;32;20146;-74
2021/03/24 00:35:46;;;;;;;16.03;7.37;;;7.00;96.00;;;;;;4424013;32;20151;-73
2021/03/24 00:38:14;;;;;;;17.27;7.90;;;6.90;96.60;;;;;;4424300;32;20140;-73
2021/03/24 00:40:45;;;;;;;13.77;7.90;;;6.90;96.50;;;;;;4424757;32;20147;-74
2021/03/24 00:43:12;;;;;;;15.87;7.63;;;6.90;96.60;;;;;;4425851;32;20183;-74
2021/03/24 00:45:39;;;;;;;18.93;7.90;;;6.90;96.80;;;;;;4425705;32;20179;-74
2021/03/24 00:48:25;;;;;;;14.00;7.67;;;6.90;96.80;;;;;;4425736;32;20174;-75
2021/03/24 00:50:52;;;;;;;15.40;7.07;;;6.80;97.10;;;;;;4425627;32;20201;-74
2021/03/24 00:53:19;;;;;;;17.17;8.30;;;6.80;97.10;;;;;;4424232;32;20180;-73
2021/03/24 00:55:47;;;;;;;17.03;7.63;;;6.70;97.40;;;;;;4425625;32;20187;-74
2021/03/24 00:58:14;;;;;;;14.33;7.00;;;6.60;97.90;;;;;;4425897;32;20143;-74
2021/03/24 01:00:42;;;;;;;14.93;7.60;;;6.50;98.50;;;;;;4425801;32;20136;-74
2021/03/24 01:03:09;;;;;;;17.83;7.90;;;6.50;98.60;;;;;;4424226;32;20219;-74
2021/03/24 01:05:37;;;;;;;14.90;6.97;;;6.60;98.50;;;;;;4424099;32;20162;-74
2021/03/24 01:08:08;;;;;;;18.43;7.60;;;6.60;98.70;;;;;;4423811;32;20136;-74
2021/03/24 01:10:36;;;;;;;16.57;7.63;;;6.70;98.80;;;;;;4424040;32;20366;-74
2021/03/24 01:13:03;;;;;;;14.10;7.30;;;6.70;98.80;;;;;;4424143;32;20191;-73
2021/03/24 01:15:32;;;;;;;15.37;7.57;;;6.70;99.00;;;;;;4424193;32;20425;-74
2021/03/24 01:17:59;;;;;;;17.13;7.70;;;6.70;98.50;;;;;;4423477;32;20395;-74
2021/03/24 01:20:30;;;;;;;14.47;7.23;;;6.70;98.70;;;;;;4423950;32;20179;-74
2021/03/24 01:22:57;;;;;;;16.10;7.83;;;6.70;98.90;;;;;;4424498;32;20148;-74
2021/03/24 01:25:24;;;;;;;15.37;7.80;;;6.70;99.00;;;;;;4424034;32;20180;-74
2021/03/24 01:27:52;;;;;;;14.27;7.67;;;6.70;99.00;;;;;;4425423;32;20179;-74
2021/03/24 01:30:21;;;;;;;18.80;7.30;;;6.60;99.20;;;;;;4410083;32;20258;-74
2021/03/24 01:32:48;;;;;;;17.40;7.60;;;6.70;99.20;;;;;;4425381;32;20460;-74
2021/03/24 01:35:17;;;;;;;16.83;7.17;;;6.70;99.30;;;;;;4424346;32;20148;-74
2021/03/24 01:37:44;;;;;;;16.80;7.50;;;6.70;99.30;;;;;;4425403;32;20209;-74
2021/03/24 01:40:29;;;;;;;14.93;7.80;;;6.70;99.40;;;;;;4424857;32;20142;-74
2021/03/24 01:42:59;;;;;;;14.70;7.53;;;6.70;99.40;;;;;;4423909;32;20139;-73
2021/03/24 01:45:25;;;;;;;15.63;7.57;;;6.60;99.60;;;;;;4425397;32;20418;-76
2021/03/24 01:47:55;;;;;;;18.53;7.73;;;6.60;99.80;;;;;;4426245;32;20181;-75
2021/03/24 01:50:28;;;;;;;13.73;6.67;;;6.60;99.90;;;;;;4427647;32;20441;-76
2021/03/24 01:53:09;;;;;;;15.57;7.30;;;6.60;99.90;;;;;;4428063;32;20233;-75
2021/03/24 01:55:36;;;;;;;13.17;7.13;;;6.60;99.90;;;;;;4425966;32;20143;-75
2021/03/24 01:58:03;;;;;;;17.97;7.47;;;6.50;99.90;;;;;;4427988;32;20465;-76
2021/03/24 02:00:38;;;;;;;15.03;6.97;;;6.50;99.90;;;;;;4426531;32;20339;-75
2021/03/24 02:03:05;;;;;;;16.30;7.30;;;6.50;99.90;;;;;;4428218;32;20151;-75
2021/03/24 02:05:33;;;;;;;16.37;7.37;;;6.40;99.90;;;;;;4426472;32;20190;-76
2021/03/24 02:08:08;;;;;;;15.37;7.00;;;6.40;99.90;;;;;;4426451;32;20177;-75
2021/03/24 02:10:45;;;;;;;15.47;7.00;;;6.40;99.90;;;;;;4426250;32;20155;-75
2021/03/24 02:13:35;;;;;;;15.23;7.73;;;6.40;99.90;;;;;;4427330;32;20139;-74
2021/03/24 02:16:24;;;;;;;13.90;6.63;;;6.30;99.90;;;;;;4427857;32;20163;-75
2021/03/24 02:18:54;;;;;;;14.70;6.90;;;6.30;99.90;;;;;;4427321;32;20193;-75
2021/03/24 02:21:22;;;;;;;17.70;7.10;;;6.40;99.90;;;;;;4427123;32;20377;-74
2021/03/24 02:23:57;;;;;;;11.97;6.50;;;6.40;99.90;;;;;;4427666;32;20243;-75
2021/03/24 02:27:02;;;;;;;12.07;7.00;;;6.40;99.90;;;;;;4426664;32;20150;-75
2021/03/24 02:29:29;;;;;;;15.87;6.60;;;6.40;99.90;;;;;;4426118;32;20147;-75
2021/03/24 02:31:58;;;;;;;15.37;6.87;;;6.40;99.90;;;;;;4425984;32;20173;-75
2021/03/24 02:34:28;;;;;;;14.23;6.70;;;6.40;99.90;;;;;;4425460;32;20470;-75
2021/03/24 02:36:57;;;;;;;14.70;6.50;;;6.30;99.90;;;;;;4425961;32;20148;-75
2021/03/24 02:39:27;;;;;;;15.50;6.53;;;6.30;99.90;;;;;;4425429;32;20139;-75
2021/03/24 02:41:58;;;;;;;15.20;6.70;;;6.30;99.90;;;;;;4427908;32;20164;-75
2021/03/24 02:44:25;;;;;;;14.57;6.50;;;6.20;99.90;;;;;;4427373;32;20161;-75
2021/03/24 02:46:53;;;;;;;13.97;6.33;;;6.20;99.90;;;;;;4425845;32;20188;-75
2021/03/24 02:49:22;;;;;;;14.23;6.00;;;6.20;99.90;;;;;;4425772;32;20148;-75
2021/03/24 02:51:49;;;;;;;15.83;6.00;;;6.20;99.90;;;;;;4427232;32;20160;-75
2021/03/24 02:54:18;;;;;;;14.40;5.33;;;6.10;99.90;;;;;;4425667;32;20151;-75
2021/03/24 02:56:45;;;;;;;9.70;5.13;;;6.10;99.90;;;;;;4425514;32;20162;-75
2021/03/24 02:59:13;;;;;;;10.17;5.47;;;6.10;99.90;;;;;;4425593;32;20201;-75
2021/03/24 03:01:55;;;;;;;12.83;4.97;;;5.90;99.90;;;;;;4425638;32;20232;-75
2021/03/24 03:04:44;;;;;;;10.43;4.97;;;6.00;99.90;;;;;;4425662;32;20143;-75
2021/03/24 03:07:20;;;;;;;11.40;5.43;;;6.00;99.90;;;;;;4425607;32;20171;-75
2021/03/24 03:09:55;;;;;;;12.23;5.30;;;5.90;99.90;;;;;;4425962;32;20452;-75
2021/03/24 03:12:31;;;;;;;10.97;5.60;;;5.90;99.90;;;;;;4427240;32;20148;-75
2021/03/24 03:14:59;;;;;;;10.27;5.30;;;5.80;99.90;;;;;;4425351;32;20400;-75
2021/03/24 03:17:51;;;;;;;11.60;5.27;;;5.80;99.90;;;;;;4425352;32;20148;-75
2021/03/24 03:20:26;;;;;;;10.90;5.17;;;5.70;99.90;;;;;;4425162;32;20160;-76
2021/03/24 03:23:04;;;;;;;13.30;5.43;;;5.80;99.90;;;;;;4426275;32;20165;-75
2021/03/24 03:25:37;;;;;;;10.70;5.17;;;5.60;99.90;;;;;;4425282;32;20455;-75
2021/03/24 03:28:09;;;;;;;11.30;5.10;;;5.60;99.90;;;;;;4424940;32;20169;-75
2021/03/24 03:30:39;;;;;;;13.37;5.60;;;5.60;99.90;;;;;;4425655;32;20162;-75
2021/03/24 03:33:11;;;;;;;12.10;5.60;;;5.60;99.90;;;;;;4424698;32;20442;-76
2021/03/24 03:35:39;;;;;;;11.87;5.47;;;5.50;99.90;;;;;;4426714;32;20428;-76
2021/03/24 03:38:12;;;;;;;11.37;5.47;;;5.50;99.90;;;;;;4425122;32;20159;-75
2021/03/24 03:40:41;;;;;;;11.43;5.47;;;5.50;99.90;;;;;;4411286;32;20202;-74
2021/03/24 03:43:11;;;;;;;10.53;5.43;;;5.60;99.90;;;;;;4426788;32;20168;-74
2021/03/24 03:45:40;;;;;;;10.67;5.67;;;5.60;99.90;;;;;;4426594;32;20149;-74
2021/03/24 03:48:13;;;;;;;12.43;5.47;;;5.50;99.90;;;;;;4426768;32;20152;-74
2021/03/24 03:50:42;;;;;;;11.60;5.50;;;5.40;99.90;;;;;;4426304;32;20179;-74
2021/03/24 03:53:17;;;;;;;10.87;5.37;;;5.40;99.90;;;;;;4424759;32;20196;-74
2021/03/24 03:55:50;;;;;;;10.90;5.37;;;5.50;99.90;;;;;;4424723;32;20161;-73
2021/03/24 03:58:57;;;;;;;14.27;6.47;;;5.40;99.90;;;;;;4426233;32;20167;-74
2021/03/24 04:01:29;;;;;;;11.30;5.67;;;5.50;99.90;;;;;;4426581;32;20162;-74
2021/03/24 04:03:58;;;;;;;14.93;5.90;;;5.50;99.90;;;;;;4424978;32;20151;-74
2021/03/24 04:06:35;;;;;;;12.67;5.73;;;5.50;99.90;;;;;;4424580;32;20183;-74
2021/03/24 04:09:08;;;;;;;12.00;5.43;;;5.50;99.90;;;;;;4424132;32;20201;-75
2021/03/24 04:11:41;;;;;;;10.03;5.40;;;5.50;99.90;;;;;;4424377;32;20152;-74
2021/03/24 04:14:11;;;;;;;11.03;5.30;;;5.30;99.90;;;;;;4426147;32;20218;-75
2021/03/24 04:16:38;;;;;;;13.90;5.73;;;5.30;99.90;;;;;;4424544;32;20546;-75
2021/03/24 04:19:09;;;;;;;13.63;6.07;;;5.40;99.90;;;;;;4424533;32;20157;-75
2021/03/24 04:21:39;;;;;;;11.20;5.67;;;5.30;99.90;;;;;;4424929;32;20169;-75
2021/03/24 04:24:13;;;;;;;13.40;6.00;;;5.30;99.90;;;;;;4424482;32;20169;-75
2021/03/24 04:26:44;;;;;;;13.23;5.63;;;5.30;99.90;;;;;;4425988;32;20178;-75
2021/03/24 04:29:29;;;;;;;11.83;5.27;;;5.40;99.90;;;;;;4425954;32;20183;-75
2021/03/24 04:31:59;;;;;;;15.30;6.10;;;5.40;99.90;;;;;;4424304;32;20150;-75
2021/03/24 04:34:26;;;;;;;10.97;5.80;;;5.40;99.90;;;;;;4424386;32;20196;-75
2021/03/24 04:37:28;;;;;;;14.53;6.37;;;5.40;99.90;;;;;;4424464;32;20183;-75
2021/03/24 04:40:15;;;;;;;11.53;6.23;;;5.40;99.90;;;;;;4410557;32;20192;-75
2021/03/24 04:42:50;;;;;;;13.83;6.03;;;5.30;99.90;;;;;;4425594;32;20150;-75
2021/03/24 04:45:25;;;;;;;14.30;6.23;;;5.30;99.90;;;;;;4425895;32;20207;-75
2021/03/24 04:47:55;;;;;;;14.77;6.50;;;5.30;99.90;;;;;;4424661;32;20465;-76
2021/03/24 04:50:27;;;;;;;12.77;6.50;;;5.30;99.90;;;;;;4424207;32;20160;-74
2021/03/24 04:52:58;;;;;;;11.33;6.23;;;5.20;99.90;;;;;;4424210;32;20151;-75
2021/03/24 04:55:35;;;;;;;16.20;6.30;;;5.20;99.90;;;;;;4424428;32;20143;-74
2021/03/24 04:58:05;;;;;;;14.70;6.40;;;5.20;99.90;;;;;;4425093;32;20183;-74
2021/03/24 05:00:38;;;;;;;14.27;6.80;;;5.10;99.90;;;;;;4425913;32;20478;-75
2021/03/24 05:03:09;;;;;;;13.30;6.10;;;5.20;99.90;;;;;;4424043;32;20167;-75
2021/03/24 05:05:42;;;;;;;11.50;6.10;;;5.30;99.90;;;;;;4424587;32;20435;-75
2021/03/24 05:08:31;;;;;;;11.23;6.17;;;5.40;99.90;;;;;;4425696;32;20194;-74
2021/03/24 05:11:02;;;;;;;12.33;6.37;;;5.40;99.90;;;;;;4423910;32;20152;-74
2021/03/24 05:13:55;;;;;;;14.30;6.67;;;5.40;99.90;;;;;;4424128;32;20142;-75
2021/03/24 05:16:28;;;;;;;12.83;6.37;;;5.40;99.90;;;;;;4420886;32;20269;-74
2021/03/24 05:18:57;;;;;;;14.60;6.10;;;5.50;99.90;;;;;;4425460;32;20464;-75
2021/03/24 05:22:13;;;;;;;15.57;7.27;;;5.50;99.90;;;;;;4427452;32;20149;-75
2021/03/24 05:24:41;;;;;;;12.97;6.70;;;5.50;99.90;;;;;;4349637;33;20227;-74
2021/03/24 05:27:14;;;;;;;13.00;6.47;;;5.60;99.90;;;;;;4349298;33;20153;-74
2021/03/24 05:29:51;;;;;;;15.87;6.73;;;5.60;99.90;;;;;;4337656;33;20394;-74
2021/03/24 05:32:24;;;;;;;14.93;6.67;;;5.60;99.90;;;;;;4350749;33;20190;-74
2021/03/24 05:34:55;;;;;;;13.43;6.73;;;5.70;99.90;;;;;;4349418;33;20165;-74
2021/03/24 05:37:27;;;;;;;14.43;7.30;;;5.60;99.90;;;;;;4349427;33;20154;-75
2021/03/24 05:40:24;;;;;;;11.43;5.97;;;5.60;99.90;;;;;;4351363;33;20152;-76
2021/03/24 05:43:00;;;;;;;14.07;6.50;;;5.70;99.90;;;;;;4341120;33;20237;-74
2021/03/24 05:45:54;;;;;;;14.23;6.80;;;5.80;99.90;;;;;;4349294;33;20153;-74
2021/03/24 05:48:43;;;;;;;12.87;6.83;;;5.80;99.90;;;;;;4350237;33;20243;-74
2021/03/24 05:51:31;;;;;;;13.10;6.43;;;5.80;99.90;;;;;;4348906;33;20187;-74
2021/03/24 05:54:10;;;;;;;16.67;6.73;;;5.80;99.90;;;;;;4350111;33;20231;-74
2021/03/24 05:56:53;;;;;;;15.27;7.00;;;5.90;99.90;;;;;;4348999;33;20168;-74
2021/03/24 05:59:36;;;;;;;17.60;7.30;;;5.80;99.90;;;;;;4350815;33;20189;-74
2021/03/24 06:02:13;;;;;;;13.73;6.77;;;5.90;99.90;;;;;;4405148;32;20207;-74
2021/03/24 06:04:55;;;;;;;16.17;7.83;;;6.00;99.90;;;;;;4428116;32;20186;-75
2021/03/24 06:08:09;;;;;;;19.20;7.47;;;6.00;99.90;;;;;;4426255;32;20155;-73
2021/03/24 06:11:12;;;;;;;19.53;7.90;;;6.10;99.90;;;;;;4349286;33;20174;-72
2021/03/24 06:14:13;;;;;;;14.90;7.00;;;6.10;99.90;;;;;;4350215;33;20184;-74
2021/03/24 06:16:54;;;;;;;15.30;7.30;;;6.10;99.90;;;;;;4349814;33;20566;-74
2021/03/24 06:20:01;;;;;;;16.37;7.27;;;6.00;99.90;;;;;;4350178;33;20173;-74
2021/03/24 06:22:45;;;;;;;14.03;7.10;;;6.10;99.90;;;;;;4290584;33;20167;-74
2021/03/24 06:25:39;;;;;;;13.63;6.97;;;6.20;99.90;;;;;;4289808;33;20163;-74
2021/03/24 06:28:27;;;;;;;13.13;7.20;;;6.20;99.90;;;;;;4290649;33;20167;-74
2021/03/24 06:31:30;;;;;;;13.73;7.10;;;6.40;99.90;;;;;;4290469;33;20159;-75
2021/03/24 06:34:21;;;;;;;14.00;7.17;;;6.40;99.90;;;;;;4290559;33;20211;-74
2021/03/24 06:37:09;;;;;;;17.23;7.53;;;6.50;99.90;;;;;;4290308;33;20161;-74
2021/03/24 06:40:02;;;;;;;14.77;7.80;;;6.50;99.90;;;;;;4291299;33;20164;-74
2021/03/24 06:43:10;;;;;;;16.17;7.53;;;6.50;99.90;;;;;;4291692;33;20160;-76
2021/03/24 06:45:50;;;;;;;16.83;7.93;;;6.50;99.90;;;;;;4276350;33;20435;-76
2021/03/24 06:48:40;;;;;;;15.57;7.20;;;6.60;99.90;;;;;;4335392;33;20145;-76
2021/03/24 06:51:21;;;;;;;16.97;7.53;;;6.60;99.90;;;;;;4335535;33;20169;-76
2021/03/24 06:54:00;;;;;;;18.90;8.20;;;6.70;99.90;;;;;;4334662;33;20424;-75
2021/03/24 06:56:48;;;;;;;15.07;7.87;;;6.80;99.90;;;;;;4335486;33;20179;-76
2021/03/24 06:59:32;;;;;;;19.80;8.40;;;6.80;99.90;;;;;;4348387;32;20410;-76
2021/03/24 07:02:13;;;;;;;16.50;8.13;;;6.90;99.90;;;;;;4378125;32;20155;-74
2021/03/24 07:04:48;;;;;;;17.50;8.83;;;6.90;99.90;;;;;;4378259;32;20183;-76
2021/03/24 07:07:45;;;;;;;16.97;7.67;;;7.00;99.90;;;;;;4369044;32;20320;-75
2021/03/24 07:10:11;;;;;;;17.13;8.17;;;7.10;99.90;;;;;;4363975;32;20529;-75
2021/03/24 07:13:19;;;;;;;18.53;8.20;;;7.20;99.90;;;;;;4363009;32;20189;-75
2021/03/24 07:15:54;;;;;;;18.53;8.23;;;7.30;99.90;;;;;;4318268;33;20240;-76
2021/03/24 07:19:05;;;;;;;17.33;8.30;;;7.40;99.90;;;;;;4319579;33;20156;-76
2021/03/24 07:21:51;;;;;;;15.87;7.93;;;7.50;99.80;;;;;;4326745;32;20174;-75
2021/03/24 07:24:25;;;;;;;14.23;8.17;;;7.50;99.40;;;;;;4362621;32;20160;-75
2021/03/24 07:27:18;;;;;;;15.37;8.20;;;7.50;98.90;;;;;;4364001;32;20176;-75
2021/03/24 07:29:52;;;;;;;19.30;8.47;;;7.50;98.40;;;;;;4362265;32;20397;-74
2021/03/24 07:32:45;;;;;;;18.07;8.33;;;7.40;98.30;;;;;;4351394;32;20172;-75
2021/03/24 07:35:34;;;;;;;22.63;8.50;;;7.50;98.20;;;;;;4362329;32;20177;-74
2021/03/24 07:38:07;;;;;;;18.07;8.00;;;7.50;97.90;;;;;;4362853;32;20266;-75
2021/03/24 07:40:48;;;;;;;18.60;8.43;;;7.60;97.60;;;;;;4361298;32;20180;-75
2021/03/24 07:43:23;;;;;;;17.47;8.70;;;7.70;97.20;;;;;;4362109;32;20459;-74
2021/03/24 07:46:01;;;;;;;21.67;8.60;;;7.80;97.20;;;;;;4362674;32;20222;-72
2021/03/24 07:48:52;;;;;;;17.87;8.67;;;7.80;96.80;;;;;;4363658;32;20204;-72
2021/03/24 07:51:18;;;;;;;17.43;8.23;;;7.80;97.00;;;;;;4375133;32;20200;-74
2021/03/24 07:53:59;;;;;;;15.27;8.17;;;7.70;96.40;;;;;;4424466;32;20155;-74
2021/03/24 07:56:45;;;;;;;17.67;8.70;;;7.70;96.70;;;;;;4423875;32;20139;-74
2021/03/24 07:59:14;;;;;;;18.47;8.87;;;7.90;96.10;;;;;;4424704;32;20149;-76
2021/03/24 08:02:09;;;;;;;14.83;8.40;;;8.10;95.60;;;;;;4424509;32;20151;-76
2021/03/24 08:04:54;;;;;;;17.00;8.67;;;8.10;95.60;;;;;;4424955;32;20169;-73
2021/03/24 08:07:43;;;;;;;18.37;8.77;;;8.10;94.90;;;;;;4424464;32;20206;-73
2021/03/24 08:10:22;;;;;;;16.20;8.43;;;7.90;95.90;;;;;;4424494;32;20189;-73
2021/03/24 08:13:22;;;;;;;18.60;8.63;;;8.10;95.40;;;;;;4424420;32;20165;-72
2021/03/24 08:16:07;;;;;;;16.10;8.23;;;8.30;94.50;;;;;;4424791;32;20139;-70
2021/03/24 08:18:57;;;;;;;19.17;8.20;;;8.20;94.50;;;;;;4424257;32;20168;-71
2021/03/24 08:22:00;;;;;;;16.47;8.80;;;8.50;93.90;;;;;;4425113;32;20213;-70
2021/03/24 08:24:45;;;;;;;21.50;9.00;;;8.70;93.30;;;;;;4410034;32;20583;-71
2021/03/24 08:27:27;;;;;;;18.73;8.90;;;8.80;93.10;;;;;;4424067;32;20139;-70
2021/03/24 08:30:01;;;;;;;18.20;8.73;;;8.90;92.50;;;;;;4424504;32;20190;-69
2021/03/24 08:32:40;;;;;;;19.23;9.20;;;9.10;92.40;;;;;;4425557;32;20141;-71
2021/03/24 08:35:39;;;;;;;17.67;8.77;;;9.10;91.90;;;;;;4425755;32;20365;-71
2021/03/24 08:38:21;;;;;;;18.13;8.63;;;9.30;91.40;;;;;;4424629;32;20143;-71
2021/03/24 08:40:59;;;;;;;18.23;8.43;;;9.30;91.10;;;;;;4424371;32;20195;-69
2021/03/24 08:43:54;;;;;;;16.20;8.57;;;9.30;90.70;;;;;;4425433;32;20165;-70
2021/03/24 08:46:33;;;;;;;16.03;8.50;;;9.20;90.60;;;;;;4424241;32;20200;-69
2021/03/24 08:49:02;;;;;;;16.70;8.67;;;9.40;90.40;;;;;;4424228;32;20143;-71
2021/03/24 08:51:50;;;;;;;18.10;8.53;;;9.40;90.10;;;;;;4425404;32;20528;-71
2021/03/24 08:54:44;;;;;;;18.00;8.57;;;9.50;89.70;;;;;;4423359;32;20480;-71
2021/03/24 08:57:29;;;;;;;17.93;8.93;;;9.60;89.00;;;;;;4427591;32;20179;-73
2021/03/24 09:00:36;;;;;;;17.40;8.73;;;9.70;88.90;;;;;;4429145;32;20395;-76
2021/03/24 09:03:44;;;;;;;16.67;8.93;;;9.90;88.20;;;;;;4426572;32;20143;-75
2021/03/24 09:06:18;;;;;;;18.30;8.83;;;10.00;87.90;;;;;;4427207;32;20178;-74
2021/03/24 09:09:11;;;;;;;15.20;7.87;;;10.10;87.40;;;;;;4429115;32;20445;-74
2021/03/24 09:11:56;;;;;;;16.40;7.93;;;10.00;85.60;;;;;;4348177;33;20184;-77
2021/03/24 09:14:46;;;;;;;17.30;7.70;;;9.90;85.50;;;;;;4347684;33;20534;-73
2021/03/24 09:17:55;;;;;;;14.07;7.00;;;10.00;85.00;;;;;;4348281;33;20364;-72
2021/03/24 09:20:25;;;;;;;14.27;7.87;;;10.10;84.10;;;;;;4347795;33;20436;-74
2021/03/24 09:23:16;;;;;;;14.00;7.90;;;9.90;83.40;;;;;;4348162;33;20240;-76
2021/03/24 09:25:48;;;;;;;16.63;8.03;;;9.90;83.80;;;;;;4347862;33;20165;-72
2021/03/24 09:28:53;;;;;;;12.63;6.90;;;9.80;84.40;;;;;;4349869;33;20155;-75
2021/03/24 09:31:58;;;;;;;15.27;7.97;;;9.50;84.10;;;;;;4349067;33;20156;-72
2021/03/24 09:34:44;;;;;;;17.80;8.97;;;9.40;85.00;;;;;;4349331;33;20171;-75
2021/03/24 09:37:14;;;;;;;17.87;8.13;;;9.20;85.70;;;;;;4349338;33;20184;-74
2021/03/24 09:39:44;;;;;;;13.97;7.63;;;9.40;86.10;;;;;;4350854;33;20246;-76
2021/03/24 09:42:28;;;;;;;20.10;9.80;;;9.50;86.20;;;;;;4350084;33;20465;-74
2021/03/24 09:45:08;;;;;;;20.80;11.50;;;9.40;86.10;;;;;;4350964;33;20621;-74
2021/03/24 09:48:00;;;;;;;18.63;9.77;;;9.40;85.80;;;;;;4352042;32;20148;-73
2021/03/24 09:50:35;;;;;;;17.70;9.57;;;9.40;85.80;;;;;;4428133;32;20154;-75
2021/03/24 09:53:08;;;;;;;18.10;9.27;;;9.30;86.00;;;;;;4426760;32;20497;-74
2021/03/24 09:55:39;;;;;;;22.17;10.30;;;9.40;86.00;;;;;;4426407;32;20188;-74
2021/03/24 09:58:27;;;;;;;24.07;11.47;;;9.40;86.80;;;;;;4428106;32;20165;-74
2021/03/24 10:01:21;;;;;;;23.57;13.00;;;9.40;86.50;;;;;;4426466;32;20187;-74
2021/03/24 10:04:09;;;;;;;27.70;12.97;;;9.30;86.30;;;;;;4427741;32;20532;-74
2021/03/24 10:06:47;;;;;;;22.33;11.10;;;9.20;87.10;;;;;;4425708;32;20170;-74
2021/03/24 10:09:20;;;;;;;20.17;11.70;;;9.30;86.80;;;;;;4426429;32;20161;-78
2021/03/24 10:11:58;;;;;;;20.90;12.17;;;9.10;86.50;;;;;;4426179;32;20403;-74
2021/03/24 10:14:37;;;;;;;22.90;11.67;;;9.00;88.20;;;;;;4426657;32;20151;-77
2021/03/24 10:17:11;;;;;;;22.15;11.68;;;9.10;87.60;;;;;;4421851;32;20340;-74
2021/03/24 10:19:44;;;;;;;23.90;11.50;;;9.10;86.40;;;;;;4426828;32;20155;-71
2021/03/24 10:22:33;;;;;;;20.60;11.37;;;9.00;85.90;;;;;;4427742;32;20223;-71
2021/03/24 10:25:08;;;;;;;20.60;11.20;;;9.00;86.00;;;;;;4427476;32;20148;-72
2021/03/24 10:27:35;;;;;;;21.30;11.77;;;9.10;86.00;;;;;;4427539;32;20169;-72
2021/03/24 10:30:34;;;;;;;21.63;11.27;;;9.20;85.80;;;;;;4426005;32;20217;-70
2021/03/24 10:33:15;;;;;;;17.47;10.20;;;9.20;85.70;;;;;;4425002;32;20181;-71
2021/03/24 10:35:55;;;;;;;17.90;10.70;;;9.30;85.50;;;;;;4426680;32;20158;-71
2021/03/24 10:38:42;;;;;;;21.27;11.17;;;9.40;85.60;;;;;;4427001;32;20202;-70
2021/03/24 10:41:18;;;;;;;19.60;11.23;;;9.50;84.60;;;;;;4426278;32;20234;-70
2021/03/24 10:43:48;;;;;;;21.73;11.73;;;9.30;85.40;;;;;;4425744;32;20146;-69
2021/03/24 10:46:23;;;;;;;22.67;11.53;;;9.30;85.80;;;;;;4426865;32;20147;-69
2021/03/24 10:49:00;;;;;;;20.98;12.65;;;9.40;85.30;;;;;;4424866;32;20053;-68
2021/03/24 10:51:54;;;;;;;19.50;11.30;;;9.40;84.90;;;;;;4427162;32;20180;-69
2021/03/24 10:54:24;;;;;;;21.40;10.90;;;9.40;85.40;;;;;;4427069;32;20207;-68
2021/03/24 10:57:23;;;;;;;17.80;9.60;;;9.40;85.10;;;;;;4427483;32;20233;-69
2021/03/24 11:00:34;;;;;;;17.80;8.90;;;9.30;84.30;;;;;;4426836;32;20394;-68
2021/03/24 11:03:37;;;;;;;15.57;8.60;;;9.20;84.60;;;;;;4426546;32;20265;-69
2021/03/24 11:06:11;;;;;;;17.33;8.10;;;9.20;85.30;;;;;;4363107;32;20190;-70
2021/03/24 11:08:46;;;;;;;16.20;8.10;;;9.30;84.20;;;;;;4364215;32;20164;-69
2021/03/24 11:11:12;;;;;;;14.87;8.23;;;9.40;83.60;;;;;;4364482;32;20580;-70
2021/03/24 11:14:01;;;;;;;15.43;7.60;;;9.50;84.20;;;;;;4366364;32;20203;-71
2021/03/24 11:16:58;;;;;;;12.40;7.27;;;9.40;82.70;;;;;;4372403;32;20170;-69
2021/03/24 11:19:32;;;;;;;11.00;6.87;;;8.80;84.90;;;;;;4379166;32;20151;-69
2021/03/24 11:22:14;;;;;;;13.50;7.27;;;8.90;86.50;;;;;;4377570;32;20139;-69
2021/03/24 11:24:52;;;;;;;12.13;7.63;;;9.10;85.10;;;;;;4369358;32;20195;-68
2021/03/24 11:27:28;;;;;;;13.57;7.07;;;9.40;84.90;;;;;;4363780;32;20147;-67
2021/03/24 11:30:02;;;;;;;15.13;7.70;;;9.70;83.70;;;;;;4363117;32;20521;-69
2021/03/24 11:32:39;;;;;;;14.60;7.90;;;9.80;82.30;;;;;;4364242;32;20524;-68
2021/03/24 11:35:14;;;;;;;13.87;7.80;;;9.80;81.90;;;;;;4363912;32;20152;-69
2021/03/24 11:37:55;;;;;;;12.57;7.50;;;9.40;83.60;;;;;;4364108;32;20159;-69
2021/03/24 11:40:33;;;;;;;14.07;7.53;;;9.40;84.00;;;;;;4351745;32;20562;-69
2021/03/24 11:43:08;;;;;;;13.47;7.33;;;9.70;84.00;;;;;;4409313;32;20471;-70
2021/03/24 11:45:38;;;;;;;11.43;7.00;;;9.70;82.20;;;;;;4426384;32;20201;-70
2021/03/24 11:48:10;;;;;;;16.07;7.63;;;9.70;82.30;;;;;;4426315;32;20155;-70
2021/03/24 11:51:04;;;;;;;17.37;7.87;;;9.40;82.40;;;;;;4425768;32;20251;-68
2021/03/24 11:53:58;;;;;;;16.47;8.67;;;9.30;84.90;;;;;;4426117;32;20463;-69
2021/03/24 11:56:55;;;;;;;14.43;8.10;;;9.30;85.80;;;;;;4425548;32;20426;-68
2021/03/24 11:59:45;;;;;;;16.87;8.70;;;9.10;86.30;;;;;;4423288;32;20476;-69
2021/03/24 12:02:22;;;;;;;15.77;9.43;;;9.10;87.20;;;;;;4425947;32;20178;-69
2021/03/24 12:04:55;;;;;;;15.93;8.33;;;8.90;87.80;;;;;;4423902;32;20431;-70
2021/03/24 12:07:42;;;;;;;16.87;9.07;;;9.00;88.50;;;;;;4425863;32;20190;-69
2021/03/24 12:10:12;;;;;;;19.37;9.27;;;9.30;88.20;;;;;;4425968;32;20183;-70
2021/03/24 12:12:38;;;;;;;13.70;8.60;;;9.20;87.50;;;;;;4426059;32;20393;-71
2021/03/24 12:15:25;;;;;;;18.43;9.40;;;9.20;87.70;;;;;;4424653;32;20214;-71
2021/03/24 12:18:06;;;;;;;17.80;9.03;;;9.10;88.10;;;;;;4425294;32;20219;-70
2021/03/24 12:21:03;;;;;;;19.07;8.97;;;9.30;87.90;;;;;;4424635;32;20545;-72
2021/03/24 12:23:33;;;;;;;16.17;8.83;;;9.30;87.30;;;;;;4426018;32;20143;-72
2021/03/24 12:26:02;;;;;;;18.33;9.30;;;9.10;87.80;;;;;;4424670;32;20143;-70
2021/03/24 12:28:40;;;;;;;15.90;8.30;;;8.90;88.40;;;;;;4424211;32;20147;-71
2021/03/24 12:31:17;;;;;;;12.83;8.40;;;9.10;89.00;;;;;;4423802;32;20181;-69
2021/03/24 12:34:05;;;;;;;14.87;8.10;;;8.80;88.00;;;;;;4425817;32;20166;-69
2021/03/24 12:36:56;;;;;;;14.03;8.30;;;8.60;88.60;;;;;;4425858;32;20144;-70
2021/03/24 12:39:36;;;;;;;17.92;10.00;;;8.80;88.60;;;;;;4424957;32;20109;-69
2021/03/24 12:42:26;;;;;;;17.57;9.20;;;8.90;87.80;;;;;;4424200;32;20456;-70
2021/03/24 12:44:53;;;;;;;15.67;8.60;;;8.90;88.10;;;;;;4426044;32;20198;-69
2021/03/24 12:47:34;;;;;;;18.10;9.60;;;9.10;87.50;;;;;;4424235;32;20144;-70
2021/03/24 12:50:11;;;;;;;17.97;9.53;;;9.20;86.30;;;;;;4425776;32;20573;-70
2021/03/24 12:52:56;;;;;;;16.97;8.83;;;9.00;86.20;;;;;;4425467;32;20195;-70
2021/03/24 12:55:22;;;;;;;17.67;9.70;;;8.80;86.90;;;;;;4425432;32;20166;-69
2021/03/24 12:58:04;;;;;;;15.77;9.30;;;8.80;87.30;;;;;;4423648;32;20174;-69
2021/03/24 13:01:04;;;;;;;15.97;9.63;;;8.90;87.50;;;;;;4424084;32;20139;-70
2021/03/24 13:04:04;;;;;;;17.37;9.67;;;9.00;87.50;;;;;;4349123;33;20183;-69
2021/03/24 13:06:49;;;;;;;18.03;9.43;;;8.90;87.10;;;;;;4356365;33;20171;-70
2021/03/24 13:09:24;;;;;;;19.83;10.40;;;9.00;86.90;;;;;;4357582;33;20176;-69
2021/03/24 13:12:12;;;;;;;20.27;9.67;;;8.90;87.80;;;;;;4356080;33;20226;-69
2021/03/24 13:15:07;;;;;;;19.93;9.97;;;8.90;87.80;;;;;;4351881;33;20215;-68
2021/03/24 13:18:00;;;;;;;17.77;9.00;;;8.90;87.70;;;;;;4352103;33;20151;-69
2021/03/24 13:21:07;;;;;;;17.57;9.03;;;8.80;88.10;;;;;;4359966;33;20202;-69
2021/03/24 13:23:55;;;;;;;18.97;9.57;;;8.80;88.20;;;;;;4363336;33;20148;-69
2021/03/24 13:26:36;;;;;;;18.73;9.90;;;8.90;88.70;;;;;;4352624;33;20180;-69
2021/03/24 13:29:20;;;;;;;15.70;9.57;;;8.80;88.00;;;;;;4349656;33;20144;-70
2021/03/24 13:32:20;;;;;;;19.57;10.00;;;9.00;87.80;;;;;;4354199;33;20160;-69
2021/03/24 13:35:12;;;;;;;18.17;9.70;;;9.20;87.20;;;;;;4353628;33;20475;-70
2021/03/24 13:37:39;;;;;;;17.27;10.00;;;9.30;86.50;;;;;;4357803;33;20195;-69
2021/03/24 13:40:32;;;;;;;17.93;9.53;;;9.20;84.80;;;;;;4383132;32;20204;-68
2021/03/24 13:43:05;;;;;;;17.17;9.57;;;9.10;86.20;;;;;;4427784;32;20151;-68
2021/03/24 13:45:43;;;;;;;17.63;9.20;;;9.20;86.00;;;;;;4427310;32;20223;-70
2021/03/24 13:48:20;;;;;;;19.33;9.97;;;9.40;85.60;;;;;;4426713;32;20200;-69